createdAt,value
2019-03-28T00:01:31.985Z,90.10
2019-03-28T00:04:03.119Z,90.00
2019-03-28T00:06:33.150Z,90.00
2019-03-28T00:09:03.236Z,89.90
2019-03-28T00:11:33.218Z,89.80
2019-03-28T00:14:03.051Z,89.60
2019-03-28T00:16:33.134Z,89.60
2019-03-28T00:19:07.639Z,89.50
2019-03-28T00:21:40.474Z,89.40
2019-03-28T00:24:15.815Z,89.50
2019-03-28T00:26:46.635Z,89.40
2019-03-28T00:29:18.929Z,89.40
2019-03-28T00:31:49.800Z,89.40
2019-03-28T00:34:20.270Z,89.30
2019-03-28T00:36:51.716Z,89.30
2019-03-28T00:39:21.778Z,89.40
2019-03-28T00:41:51.631Z,89.20
2019-03-28T00:44:22.614Z,89.30
2019-03-28T00:46:54.597Z,89.00
2019-03-28T00:49:28.896Z,89.20
2019-03-28T00:52:00.551Z,89.10
2019-03-28T00:54:31.562Z,89.20
2019-03-28T00:57:02.644Z,89.20
2019-03-28T00:59:32.838Z,89.20
2019-03-28T01:02:02.800Z,89.20
2019-03-28T01:04:32.894Z,89.00
2019-03-28T01:07:02.774Z,89.00
2019-03-28T01:09:32.738Z,89.10
2019-03-28T01:12:02.644Z,89.00
2019-03-28T01:14:36.403Z,89.10
2019-03-28T01:17:06.309Z,89.10
2019-03-28T01:19:36.299Z,89.00
2019-03-28T01:22:09.250Z,89.00
2019-03-28T01:24:39.266Z,89.20
2019-03-28T01:27:09.417Z,89.20
2019-03-28T01:29:47.451Z,89.20
2019-03-28T01:32:17.382Z,89.10
2019-03-28T01:34:47.534Z,89.00
2019-03-28T01:37:17.403Z,89.00
2019-03-28T01:39:51.013Z,88.80
2019-03-28T01:42:20.976Z,88.80
2019-03-28T01:44:54.011Z,88.60
2019-03-28T01:47:23.837Z,88.60
2019-03-28T01:49:53.912Z,88.70
2019-03-28T01:52:23.818Z,88.50
2019-03-28T01:54:53.856Z,88.40
2019-03-28T01:57:23.774Z,88.20
2019-03-28T01:59:53.839Z,88.20
2019-03-28T02:02:23.688Z,88.20
2019-03-28T02:04:53.711Z,88.10
2019-03-28T02:07:25.253Z,88.00
2019-03-28T02:09:55.508Z,88.10
2019-03-28T02:12:25.770Z,88.20
2019-03-28T02:14:55.930Z,88.20
2019-03-28T02:17:25.738Z,88.00
2019-03-28T02:19:55.781Z,88.00
2019-03-28T02:22:25.777Z,88.20
2019-03-28T02:24:55.841Z,88.20
2019-03-28T02:27:26.091Z,88.20
2019-03-28T02:29:56.128Z,88.00
2019-03-28T02:32:26.131Z,88.20
2019-03-28T02:34:56.105Z,88.20
2019-03-28T02:37:26.119Z,88.30
2019-03-28T02:39:56.047Z,88.20
2019-03-28T02:42:25.936Z,88.40
2019-03-28T02:44:56.023Z,88.40
2019-03-28T02:47:25.945Z,89.10
2019-03-28T02:49:56.250Z,88.40
2019-03-28T02:52:26.164Z,88.30
2019-03-28T02:54:56.109Z,88.50
2019-03-28T02:57:40.066Z,88.40
2019-03-28T02:59:57.495Z,88.40
2019-03-28T03:02:27.555Z,88.50
2019-03-28T03:04:57.440Z,88.40
2019-03-28T03:07:27.490Z,88.30
2019-03-28T03:09:57.436Z,88.40
2019-03-28T03:12:27.892Z,88.50
2019-03-28T03:14:57.954Z,88.50
2019-03-28T03:17:28.040Z,88.60
2019-03-28T03:19:57.876Z,88.60
2019-03-28T03:22:28.628Z,88.50
2019-03-28T03:24:58.806Z,88.60
2019-03-28T03:27:28.767Z,88.80
2019-03-28T03:29:58.696Z,88.90
2019-03-28T03:32:28.843Z,88.60
2019-03-28T03:35:02.286Z,88.80
2019-03-28T03:37:32.557Z,88.70
2019-03-28T03:40:03.454Z,88.60
2019-03-28T03:42:34.861Z,88.80
2019-03-28T03:45:05.829Z,88.60
2019-03-28T03:47:38.211Z,89.20
2019-03-28T03:50:10.031Z,88.70
2019-03-28T03:52:41.671Z,88.70
2019-03-28T03:55:13.338Z,88.50
2019-03-28T03:57:47.564Z,88.50
2019-03-28T04:00:21.707Z,88.40
2019-03-28T04:02:51.654Z,89.00
2019-03-28T04:05:21.944Z,88.50
2019-03-28T04:07:52.619Z,88.50
2019-03-28T04:10:22.556Z,88.50
2019-03-28T04:12:52.440Z,88.50
2019-03-28T04:15:22.424Z,88.50
2019-03-28T04:17:52.377Z,88.50
2019-03-28T04:20:22.390Z,88.50
2019-03-28T04:22:52.823Z,88.50
2019-03-28T04:25:22.779Z,88.60
2019-03-28T04:27:52.673Z,88.70
2019-03-28T04:30:22.848Z,88.60
2019-03-28T04:32:52.903Z,88.70
2019-03-28T04:35:22.868Z,88.90
2019-03-28T04:37:52.755Z,88.80
2019-03-28T04:40:22.725Z,88.70
2019-03-28T04:42:53.828Z,88.70
2019-03-28T04:45:23.872Z,88.50
2019-03-28T04:47:53.742Z,88.10
2019-03-28T04:50:23.737Z,88.20
2019-03-28T04:52:54.024Z,88.00
2019-03-28T04:55:24.038Z,87.80
2019-03-28T04:57:53.913Z,87.80
2019-03-28T05:00:24.233Z,87.50
2019-03-28T05:02:54.168Z,87.40
2019-03-28T05:05:24.507Z,87.30
2019-03-28T05:07:54.861Z,87.20
2019-03-28T05:10:25.015Z,87.00
2019-03-28T05:12:55.330Z,87.00
2019-03-28T05:15:28.268Z,86.80
2019-03-28T05:17:57.920Z,86.50
2019-03-28T05:20:27.971Z,86.50
2019-03-28T05:22:58.018Z,86.50
2019-03-28T05:25:27.933Z,86.60
2019-03-28T05:27:57.943Z,86.20
2019-03-28T05:30:28.064Z,86.30
2019-03-28T05:32:59.984Z,86.50
2019-03-28T05:35:31.174Z,86.20
2019-03-28T05:38:01.102Z,85.90
2019-03-28T05:40:33.589Z,85.80
2019-03-28T05:43:03.591Z,85.60
2019-03-28T05:45:33.490Z,85.60
2019-03-28T05:48:03.438Z,85.70
2019-03-28T05:50:33.411Z,85.50
2019-03-28T05:53:04.256Z,85.60
2019-03-28T05:55:34.507Z,85.30
2019-03-28T05:58:05.924Z,85.30
2019-03-28T06:00:38.998Z,84.80
2019-03-28T06:03:11.890Z,84.90
2019-03-28T06:05:43.533Z,85.00
2019-03-28T06:08:13.547Z,84.80
2019-03-28T06:10:43.590Z,84.60
2019-03-28T06:13:15.173Z,85.20
2019-03-28T06:15:49.278Z,85.00
2019-03-28T06:18:20.277Z,84.30
2019-03-28T06:20:55.449Z,84.50
2019-03-28T06:23:25.652Z,84.30
2019-03-28T06:25:55.643Z,84.60
2019-03-28T06:28:25.765Z,84.20
2019-03-28T06:30:56.204Z,84.50
2019-03-28T06:33:26.188Z,85.00
2019-03-28T06:35:56.342Z,84.90
2019-03-28T06:38:26.391Z,85.60
2019-03-28T06:40:57.307Z,86.10
2019-03-28T06:43:27.556Z,87.20
2019-03-28T06:45:57.846Z,87.10
2019-03-28T06:48:27.865Z,87.70
2019-03-28T06:50:57.802Z,87.40
2019-03-28T06:53:27.790Z,86.90
2019-03-28T06:55:57.617Z,87.30
2019-03-28T06:58:28.015Z,87.10
2019-03-28T07:00:57.890Z,86.80
2019-03-28T07:03:28.284Z,86.50
2019-03-28T07:05:58.215Z,86.00
2019-03-28T07:08:28.283Z,84.90
2019-03-28T07:10:58.465Z,84.20
2019-03-28T07:13:28.430Z,83.50
2019-03-28T07:15:58.453Z,82.60
2019-03-28T07:18:29.646Z,81.90
2019-03-28T07:20:59.781Z,81.10
2019-03-28T07:23:29.858Z,80.70
2019-03-28T07:26:00.494Z,80.20
2019-03-28T07:28:30.510Z,79.30
2019-03-28T07:31:00.949Z,78.90
2019-03-28T07:33:31.286Z,77.80
2019-03-28T07:36:01.664Z,76.50
2019-03-28T07:38:31.733Z,75.90
2019-03-28T07:41:01.760Z,75.30
2019-03-28T07:43:31.638Z,74.20
2019-03-28T07:46:01.605Z,72.30
2019-03-28T07:48:32.230Z,71.30
2019-03-28T07:51:02.120Z,71.00
2019-03-28T07:53:33.284Z,69.30
2019-03-28T07:56:04.041Z,68.40
2019-03-28T07:58:35.290Z,66.90
2019-03-28T08:01:05.581Z,66.80
2019-03-28T08:03:40.955Z,65.80
2019-03-28T08:06:13.048Z,64.10
2019-03-28T08:08:46.313Z,64.20
2019-03-28T08:11:16.652Z,63.70
2019-03-28T08:13:46.706Z,63.80
2019-03-28T08:16:16.900Z,62.90
2019-03-28T08:18:48.962Z,62.30
2019-03-28T08:21:27.142Z,61.50
2019-03-28T08:23:57.061Z,61.00
2019-03-28T08:26:30.043Z,60.20
2019-03-28T08:29:01.584Z,60.30
2019-03-28T08:31:31.525Z,59.80
2019-03-28T08:34:02.136Z,60.70
2019-03-28T08:36:36.064Z,61.10
2019-03-28T08:39:07.705Z,60.30
2019-03-28T08:41:41.460Z,59.50
2019-03-28T08:44:11.297Z,59.70
2019-03-28T08:46:42.176Z,58.70
2019-03-28T08:49:12.007Z,57.80
2019-03-28T08:51:45.148Z,57.00
2019-03-28T08:54:15.135Z,56.20
2019-03-28T08:56:45.123Z,54.90
2019-03-28T08:59:15.066Z,54.70
2019-03-28T09:04:33.111Z,53.50
2019-03-28T09:07:03.048Z,52.00
2019-03-28T09:09:41.368Z,51.60
2019-03-28T09:12:11.173Z,51.10
2019-03-28T09:14:50.738Z,50.00
2019-03-28T09:17:23.734Z,48.90
2019-03-28T09:19:52.532Z,48.00
2019-03-28T09:22:23.703Z,47.20
2019-03-28T09:24:54.104Z,47.30
2019-03-28T09:27:24.328Z,46.20
2019-03-28T09:29:55.692Z,44.80
2019-03-28T09:32:25.942Z,43.10
2019-03-28T09:34:57.193Z,43.30
2019-03-28T09:37:27.248Z,43.90
2019-03-28T09:39:57.417Z,43.90
2019-03-28T09:42:27.721Z,45.10
2019-03-28T09:44:57.758Z,45.60
2019-03-28T09:47:27.800Z,46.10
2019-03-28T09:50:00.075Z,44.70
2019-03-28T09:52:30.093Z,43.40
2019-03-28T09:55:01.673Z,42.30
2019-03-28T09:57:31.532Z,42.00
2019-03-28T10:00:01.703Z,40.90
2019-03-28T10:02:31.682Z,40.00
2019-03-28T10:05:03.342Z,41.00
2019-03-28T10:07:34.118Z,42.00
2019-03-28T10:10:04.331Z,42.50
2019-03-28T10:12:34.694Z,43.10
2019-03-28T10:15:06.526Z,43.60
2019-03-28T10:17:38.511Z,43.50
2019-03-28T10:20:09.005Z,43.40
2019-03-28T10:22:42.947Z,43.30
2019-03-28T10:25:16.411Z,43.80
2019-03-28T10:27:46.306Z,43.50
2019-03-28T10:30:16.794Z,43.00
2019-03-28T10:32:46.658Z,42.70
2019-03-28T10:35:27.904Z,42.40
2019-03-28T10:37:58.396Z,41.60
2019-03-28T10:40:28.907Z,42.00
2019-03-28T10:42:59.645Z,41.50
2019-03-28T10:45:29.699Z,41.70
2019-03-28T10:48:01.575Z,40.90
2019-03-28T10:50:40.786Z,40.10
2019-03-28T10:53:03.443Z,40.90
2019-03-28T10:55:33.580Z,41.50
2019-03-28T10:58:17.199Z,42.40
2019-03-28T11:00:43.434Z,43.70
2019-03-28T11:03:15.603Z,44.90
2019-03-28T11:05:45.616Z,46.00
2019-03-28T11:08:16.558Z,47.10
2019-03-28T11:10:47.338Z,48.30
2019-03-28T11:13:18.481Z,49.10
2019-03-28T11:15:48.554Z,49.80
2019-03-28T11:18:18.509Z,49.30
2019-03-28T11:20:48.576Z,49.70
2019-03-28T11:23:20.936Z,49.30
2019-03-28T11:25:51.149Z,48.60
2019-03-28T11:28:23.425Z,47.80
2019-03-28T11:30:53.024Z,47.90
2019-03-28T11:33:23.405Z,48.00
2019-03-28T11:35:53.388Z,47.70
2019-03-28T11:38:32.701Z,47.20
2019-03-28T11:40:58.259Z,46.10
2019-03-28T11:43:28.432Z,45.70
2019-03-28T11:45:59.633Z,45.80
2019-03-28T11:48:30.070Z,45.90
2019-03-28T11:51:00.183Z,45.30
2019-03-28T11:53:31.660Z,44.50
2019-03-28T11:56:06.480Z,44.30
2019-03-28T11:58:41.103Z,44.80
2019-03-28T12:01:15.914Z,43.50
2019-03-28T12:03:47.678Z,42.80
2019-03-28T12:06:20.284Z,42.20
2019-03-28T12:08:55.977Z,42.80
2019-03-28T12:11:28.946Z,44.50
2019-03-28T12:14:02.270Z,46.30
2019-03-28T12:16:32.389Z,48.20
2019-03-28T12:19:04.732Z,48.70
2019-03-28T12:21:35.026Z,48.80
2019-03-28T12:24:11.356Z,48.50
2019-03-28T12:26:44.074Z,47.80
2019-03-28T12:29:14.428Z,47.20
2019-03-28T12:31:46.543Z,47.90
2019-03-28T12:34:16.891Z,48.00
2019-03-28T12:36:47.071Z,47.70
2019-03-28T12:39:17.203Z,47.30
2019-03-28T12:41:52.167Z,47.90
2019-03-28T12:44:24.020Z,47.20
2019-03-28T12:46:56.623Z,48.10
2019-03-28T12:49:30.379Z,46.90
2019-03-28T12:52:00.518Z,47.10
2019-03-28T12:54:34.572Z,46.70
2019-03-28T12:57:04.974Z,46.60
2019-03-28T12:59:53.467Z,46.50
2019-03-28T13:02:30.013Z,46.90
2019-03-28T13:04:55.324Z,46.80
2019-03-28T13:07:25.781Z,47.60
2019-03-28T13:09:55.768Z,48.40
2019-03-28T13:12:25.854Z,49.10
2019-03-28T13:14:55.783Z,49.30
2019-03-28T13:17:25.951Z,49.30
2019-03-28T13:19:56.144Z,48.60
2019-03-28T13:22:26.343Z,48.80
2019-03-28T13:25:01.213Z,48.60
2019-03-28T13:27:34.652Z,47.50
2019-03-28T13:30:04.890Z,46.00
2019-03-28T13:32:41.708Z,45.60
2019-03-28T13:35:07.840Z,44.90
2019-03-28T13:37:38.304Z,44.00
2019-03-28T13:40:09.392Z,44.60
2019-03-28T13:42:40.890Z,45.50
2019-03-28T13:45:12.856Z,45.50
2019-03-28T13:47:42.870Z,44.90
2019-03-28T13:50:13.264Z,45.90
2019-03-28T13:52:46.047Z,46.50
2019-03-28T13:55:16.125Z,46.60
2019-03-28T13:57:46.099Z,46.80
2019-03-28T14:00:18.816Z,47.20
2019-03-28T14:02:55.822Z,48.00
2019-03-28T14:05:20.386Z,48.70
2019-03-28T14:07:51.156Z,49.00
2019-03-28T14:10:21.939Z,49.30
2019-03-28T14:12:51.973Z,49.50
2019-03-28T14:15:22.106Z,50.20
2019-03-28T14:17:52.084Z,50.10
2019-03-28T14:20:22.515Z,50.20
2019-03-28T14:22:53.459Z,50.30
2019-03-28T14:25:23.522Z,49.80
2019-03-28T14:27:53.766Z,49.70
2019-03-28T14:30:23.729Z,50.10
2019-03-28T14:32:55.412Z,50.40
2019-03-28T14:35:26.403Z,50.90
2019-03-28T14:37:58.887Z,51.00
2019-03-28T14:40:28.944Z,52.20
2019-03-28T14:43:10.913Z,53.00
2019-03-28T14:45:42.244Z,53.30
2019-03-28T14:48:12.292Z,53.80
2019-03-28T14:50:47.993Z,53.80
2019-03-28T14:53:18.107Z,53.80
2019-03-28T14:55:48.259Z,54.20
2019-03-28T14:58:22.730Z,54.20
2019-03-28T15:00:54.146Z,55.00
2019-03-28T15:03:27.030Z,54.90
2019-03-28T15:05:56.022Z,56.00
2019-03-28T15:08:25.887Z,56.00
2019-03-28T15:10:55.834Z,56.40
2019-03-28T15:13:25.769Z,56.00
2019-03-28T15:15:57.896Z,56.40
2019-03-28T15:18:28.160Z,57.10
2019-03-28T15:20:59.453Z,58.10
2019-03-28T15:23:29.394Z,58.70
2019-03-28T15:26:00.203Z,59.70
2019-03-28T15:28:30.827Z,60.50
2019-03-28T15:31:02.507Z,60.90
2019-03-28T15:33:39.349Z,61.20
2019-03-28T15:36:05.189Z,62.10
2019-03-28T15:38:39.857Z,62.80
2019-03-28T15:41:10.298Z,63.50
2019-03-28T15:43:40.720Z,63.90
2019-03-28T15:46:14.383Z,64.20
2019-03-28T15:48:45.640Z,64.60
2019-03-28T15:51:15.818Z,65.10
2019-03-28T15:53:45.752Z,65.30
2019-03-28T15:56:16.146Z,65.40
2019-03-28T15:58:48.505Z,65.70
2019-03-28T16:01:18.550Z,65.50
2019-03-28T16:03:53.609Z,65.50
2019-03-28T16:06:37.896Z,65.90
2019-03-28T16:09:45.399Z,66.40
2019-03-28T16:12:21.303Z,66.20
2019-03-28T16:14:57.107Z,66.50
2019-03-28T16:17:28.577Z,67.10
2019-03-28T16:20:45.927Z,67.80
2019-03-28T16:23:22.943Z,68.30
2019-03-28T16:25:56.379Z,69.10
2019-03-28T16:28:46.073Z,70.10
2019-03-28T16:32:05.933Z,71.20
2019-03-28T16:34:37.131Z,71.80
2019-03-28T16:37:09.782Z,72.50
2019-03-28T16:39:43.168Z,72.80
2019-03-28T16:42:19.189Z,73.10
2019-03-28T16:44:53.030Z,74.20
2019-03-28T16:47:23.365Z,76.10
2019-03-28T16:49:58.969Z,76.10
2019-03-28T16:52:53.003Z,77.50
2019-03-28T16:55:26.529Z,78.10
2019-03-28T16:57:54.767Z,78.40
2019-03-28T17:00:36.623Z,78.90
2019-03-28T17:03:12.989Z,79.40
2019-03-28T17:05:47.155Z,79.50
2019-03-28T17:08:17.789Z,80.70
2019-03-28T17:10:55.954Z,80.10
2019-03-28T17:13:26.341Z,80.50
2019-03-28T17:16:03.288Z,80.30
2019-03-28T17:18:36.359Z,80.30
2019-03-28T17:21:47.426Z,80.30
2019-03-28T17:25:22.389Z,80.30
2019-03-28T17:28:05.250Z,81.00
2019-03-28T17:30:41.111Z,81.40
2019-03-28T17:33:53.513Z,81.80
2019-03-28T17:36:08.784Z,82.20
2019-03-28T17:38:44.342Z,83.40
2019-03-28T17:41:14.579Z,82.70
2019-03-28T17:43:44.810Z,83.50
2019-03-28T17:46:16.113Z,83.90
2019-03-28T17:48:50.985Z,84.90
2019-03-28T17:51:29.937Z,85.70
2019-03-28T17:54:07.883Z,86.80
2019-03-28T17:56:41.571Z,87.50
2019-03-28T17:59:14.318Z,87.50
2019-03-28T18:01:53.097Z,88.10
2019-03-28T18:04:32.831Z,87.90
2019-03-28T18:07:02.132Z,87.70
2019-03-28T18:09:33.823Z,87.60
2019-03-28T18:12:06.245Z,87.50
2019-03-28T18:14:49.621Z,87.80
2019-03-28T18:17:21.352Z,87.80
2019-03-28T18:19:52.339Z,87.60
2019-03-28T18:22:25.903Z,87.20
2019-03-28T18:25:04.358Z,87.10
2019-03-28T18:27:36.326Z,86.80
2019-03-28T18:30:07.435Z,86.10
2019-03-28T18:33:05.163Z,85.30
2019-03-28T18:35:35.157Z,85.10
2019-03-28T18:38:20.364Z,83.80
2019-03-28T18:41:01.480Z,82.90
2019-03-28T18:43:51.876Z,82.60
2019-03-28T18:46:31.792Z,82.20
2019-03-28T18:49:04.195Z,82.00
2019-03-28T18:51:35.087Z,81.70
2019-03-28T18:54:05.125Z,81.70
2019-03-28T18:56:43.576Z,81.90
2019-03-28T18:59:34.087Z,82.40
2019-03-28T19:02:05.285Z,81.80
2019-03-28T19:04:35.246Z,81.80
2019-03-28T19:07:10.018Z,82.00
2019-03-28T19:09:40.420Z,82.00
2019-03-28T19:12:13.898Z,82.10
2019-03-28T19:14:46.308Z,82.10
2019-03-28T19:17:21.120Z,82.10
2019-03-28T19:19:51.275Z,82.20
2019-03-28T19:22:21.361Z,82.30
2019-03-28T19:24:53.381Z,82.30
2019-03-28T19:27:23.829Z,82.20
2019-03-28T19:29:53.715Z,82.10
2019-03-28T19:32:23.766Z,82.30
2019-03-28T19:34:53.674Z,82.20
2019-03-28T19:37:24.729Z,82.50
2019-03-28T19:39:55.071Z,82.30
2019-03-28T19:42:25.017Z,82.30
2019-03-28T19:44:55.516Z,82.50
2019-03-28T19:47:28.387Z,82.80
2019-03-28T19:49:57.039Z,82.50
2019-03-28T19:52:26.890Z,82.50
2019-03-28T19:54:57.929Z,82.70
2019-03-28T19:57:29.189Z,82.80
2019-03-28T19:59:59.101Z,82.30
2019-03-28T20:02:30.483Z,82.30
2019-03-28T20:05:00.499Z,82.30
2019-03-28T20:07:32.899Z,82.30
2019-03-28T20:10:16.321Z,82.60
2019-03-28T20:12:39.345Z,82.70
2019-03-28T20:15:09.852Z,82.40
2019-03-28T20:17:47.841Z,82.50
2019-03-28T20:20:17.442Z,82.70
2019-03-28T20:22:47.669Z,82.90
2019-03-28T20:25:17.638Z,82.80
2019-03-28T20:27:47.686Z,83.00
2019-03-28T20:30:17.544Z,83.00
2019-03-28T20:32:47.487Z,83.30
2019-03-28T20:35:17.671Z,83.40
2019-03-28T20:37:47.749Z,83.70
2019-03-28T20:40:17.871Z,83.70
2019-03-28T20:42:48.133Z,83.90
2019-03-28T20:45:18.629Z,84.00
2019-03-28T20:47:48.698Z,84.00
2019-03-28T20:50:19.414Z,84.50
2019-03-28T20:52:49.326Z,84.10
2019-03-28T20:55:19.418Z,84.60
2019-03-28T20:57:49.393Z,84.90
2019-03-28T21:00:38.924Z,84.90
2019-03-28T21:03:09.086Z,84.90
2019-03-28T21:05:40.971Z,85.20
2019-03-28T21:08:10.949Z,85.30
2019-03-28T21:10:41.088Z,84.90
2019-03-28T21:13:11.053Z,84.90
2019-03-28T21:15:43.389Z,85.00
2019-03-28T21:18:13.287Z,85.20
2019-03-28T21:20:45.386Z,85.30
2019-03-28T21:23:15.305Z,85.60
2019-03-28T21:25:46.059Z,85.30
2019-03-28T21:28:15.996Z,85.40
2019-03-28T21:30:47.855Z,85.60
2019-03-28T21:33:18.018Z,85.60
2019-03-28T21:35:48.275Z,85.80
2019-03-28T21:38:18.149Z,85.80
2019-03-28T21:40:48.206Z,85.70
2019-03-28T21:43:18.080Z,85.70
2019-03-28T21:45:48.098Z,86.20
2019-03-28T21:48:17.935Z,86.30
2019-03-28T21:50:48.221Z,86.30
2019-03-28T21:53:20.002Z,86.60
2019-03-28T21:55:55.406Z,86.70
2019-03-28T21:58:21.695Z,87.10
2019-03-28T22:00:59.322Z,87.20
2019-03-28T22:03:29.270Z,87.30
2019-03-28T22:06:02.609Z,87.60
2019-03-28T22:08:32.843Z,87.80
2019-03-28T22:11:03.024Z,87.90
2019-03-28T22:13:32.935Z,88.10
2019-03-28T22:16:07.453Z,88.10
2019-03-28T22:18:36.064Z,87.90
2019-03-28T22:21:06.078Z,88.10
2019-03-28T22:23:39.538Z,88.40
2019-03-28T22:26:09.600Z,88.40
2019-03-28T22:28:43.371Z,88.50
2019-03-28T22:31:13.375Z,88.70
2019-03-28T22:33:43.539Z,88.60
2019-03-28T22:36:14.047Z,88.40
2019-03-28T22:38:44.183Z,88.40
2019-03-28T22:41:14.174Z,88.50
2019-03-28T22:43:47.232Z,88.60
2019-03-28T22:46:17.178Z,88.70
2019-03-28T22:48:47.034Z,88.30
2019-03-28T22:51:17.969Z,88.10
2019-03-28T22:53:48.157Z,88.10
2019-03-28T22:56:18.104Z,88.30
2019-03-28T22:58:48.061Z,88.30
2019-03-28T23:01:18.411Z,89.00
2019-03-28T23:03:49.168Z,88.70
2019-03-28T23:06:19.280Z,88.60
2019-03-28T23:08:49.228Z,88.60
2019-03-28T23:11:19.161Z,88.80
2019-03-28T23:13:49.025Z,89.00
2019-03-28T23:16:24.091Z,89.10
2019-03-28T23:18:54.152Z,89.30
2019-03-28T23:21:24.216Z,89.60
2019-03-28T23:23:54.181Z,89.60
2019-03-28T23:26:24.259Z,90.00
2019-03-28T23:28:54.150Z,90.10
2019-03-28T23:31:25.189Z,90.00
2019-03-28T23:33:55.272Z,90.10
2019-03-28T23:36:25.323Z,90.10
2019-03-28T23:38:56.535Z,90.40
2019-03-28T23:41:26.796Z,90.50
2019-03-28T23:43:57.073Z,90.60
2019-03-28T23:46:27.139Z,90.70
2019-03-28T23:48:59.079Z,90.70
2019-03-28T23:51:29.236Z,90.80
2019-03-28T23:53:59.262Z,90.80
2019-03-28T23:56:29.354Z,90.90
2019-03-28T23:58:59.192Z,90.90
